Terminal Aerodrome Forecast
Issued by NWS Northern Indiana

Home | Current Version | Previous Version | Text Only | Print | Product List | Glossary On
Versions: 1 2 3 4 5 6 7 8 9 10 11 12
000
FTUS43 KIWX 232339 AAA
TAFFWA
TAF AMD
KFWA 232339Z 2400/2424 02006KT P6SM SCT100 BKN200
     FM240400 05006KT P6SM BKN020
     FM240900 06006KT P6SM OVC015
      TEMPO 2411/2413 4SM BR OVC008
     FM241600 08008KT P6SM BKN025=

USA.gov is the U.S. government's official web portal to all federal, state and local government web resources and services.